createdAt,value
2017-08-10T00:01:28.687Z,6.20
2017-08-10T00:03:56.023Z,5.97
2017-08-10T00:06:23.312Z,6.33
2017-08-10T00:08:50.621Z,6.97
2017-08-10T00:11:17.948Z,6.60
2017-08-10T00:13:45.280Z,6.50
2017-08-10T00:16:12.732Z,6.33
2017-08-10T00:18:40.041Z,6.60
2017-08-10T00:21:07.351Z,6.70
2017-08-10T00:23:34.666Z,6.87
2017-08-10T00:26:02.014Z,7.27
2017-08-10T00:28:29.550Z,6.47
2017-08-10T00:30:56.923Z,7.50
2017-08-10T00:33:24.253Z,6.33
2017-08-10T00:35:51.591Z,7.23
2017-08-10T00:38:18.933Z,6.30
2017-08-10T00:40:46.576Z,6.87
2017-08-10T00:43:13.883Z,7.40
2017-08-10T00:45:41.198Z,6.80
2017-08-10T00:48:08.484Z,7.27
2017-08-10T00:50:35.797Z,7.37
2017-08-10T00:53:03.097Z,6.93
2017-08-10T00:55:30.418Z,7.20
2017-08-10T00:57:57.739Z,7.10
2017-08-10T01:00:25.073Z,7.80
2017-08-10T01:02:52.372Z,7.30
2017-08-10T01:05:19.670Z,6.90
2017-08-10T01:07:46.978Z,7.40
2017-08-10T01:10:14.276Z,7.27
2017-08-10T01:12:41.595Z,7.67
2017-08-10T01:15:08.885Z,7.40
2017-08-10T01:17:36.207Z,7.60
2017-08-10T01:20:03.796Z,7.20
2017-08-10T01:22:31.122Z,7.17
2017-08-10T01:24:58.422Z,7.20
2017-08-10T01:27:25.772Z,7.90
2017-08-10T01:29:53.104Z,7.70
2017-08-10T01:32:20.432Z,7.63
2017-08-10T01:34:47.767Z,7.77
2017-08-10T01:37:15.082Z,8.13
2017-08-10T01:39:42.385Z,7.77
2017-08-10T01:42:09.711Z,7.70
2017-08-10T01:44:37.015Z,8.43
2017-08-10T01:47:04.320Z,8.90
2017-08-10T01:49:31.620Z,9.27
2017-08-10T01:51:58.959Z,8.80
2017-08-10T01:54:26.291Z,9.57
2017-08-10T01:56:53.610Z,10.70
2017-08-10T01:59:20.925Z,10.70
2017-08-10T02:01:48.238Z,9.93
2017-08-10T02:04:15.553Z,10.37
2017-08-10T02:06:42.874Z,10.40
2017-08-10T02:09:10.180Z,11.17
2017-08-10T02:11:37.808Z,11.03
2017-08-10T02:14:05.114Z,11.60
2017-08-10T02:16:33.391Z,12.20
2017-08-10T02:19:00.754Z,12.90
2017-08-10T02:21:28.061Z,13.40
2017-08-10T02:23:55.841Z,11.97
2017-08-10T02:26:24.085Z,11.90
2017-08-10T02:28:51.441Z,12.53
2017-08-10T02:31:18.779Z,12.90
2017-08-10T02:33:46.139Z,12.90
2017-08-10T02:36:13.468Z,12.40
2017-08-10T02:38:40.795Z,12.60
2017-08-10T02:41:08.131Z,12.80
2017-08-10T02:43:35.834Z,13.10
2017-08-10T02:46:03.129Z,12.80
2017-08-10T02:48:30.516Z,12.77
2017-08-10T02:50:57.834Z,12.93
2017-08-10T02:53:25.167Z,13.37
2017-08-10T02:55:52.520Z,12.80
2017-08-10T02:58:19.834Z,13.33
2017-08-10T03:00:47.519Z,13.20
2017-08-10T03:03:14.806Z,13.03
2017-08-10T03:05:42.310Z,12.70
2017-08-10T03:08:09.614Z,12.80
2017-08-10T03:10:36.951Z,14.00
2017-08-10T03:13:04.283Z,14.10
2017-08-10T03:15:31.641Z,14.37
2017-08-10T03:17:58.964Z,14.20
2017-08-10T03:20:26.353Z,13.70
2017-08-10T03:22:53.678Z,14.23
2017-08-10T03:25:21.005Z,13.87
2017-08-10T03:27:48.333Z,14.87
2017-08-10T03:30:15.685Z,13.90
2017-08-10T03:32:42.993Z,14.83
2017-08-10T03:35:10.483Z,13.20
2017-08-10T03:37:37.789Z,15.03
2017-08-10T03:40:05.100Z,14.80
2017-08-10T03:42:32.421Z,15.87
2017-08-10T03:44:59.732Z,14.10
2017-08-10T03:47:27.080Z,15.73
2017-08-10T03:49:54.403Z,14.90
2017-08-10T03:52:21.782Z,13.30
2017-08-10T03:54:49.081Z,13.30
2017-08-10T03:57:16.402Z,13.63
2017-08-10T03:59:43.722Z,13.30
2017-08-10T04:02:11.036Z,12.27
2017-08-10T04:04:38.374Z,12.90
2017-08-10T04:07:05.717Z,12.77
2017-08-10T04:09:33.333Z,13.30
2017-08-10T04:12:00.708Z,13.13
2017-08-10T04:14:28.026Z,12.90
2017-08-10T04:16:55.376Z,11.80
2017-08-10T04:19:22.710Z,13.13
2017-08-10T04:21:50.069Z,12.10
2017-08-10T04:24:17.390Z,11.33
2017-08-10T04:26:44.722Z,12.23
2017-08-10T04:29:12.056Z,12.20
2017-08-10T04:31:39.428Z,13.03
2017-08-10T04:34:06.744Z,12.77
2017-08-10T04:36:34.130Z,13.23
2017-08-10T04:39:01.429Z,14.33
2017-08-10T04:41:28.766Z,15.40
2017-08-10T04:43:56.246Z,14.90
2017-08-10T04:46:23.569Z,14.30
2017-08-10T04:48:50.879Z,15.77
2017-08-10T04:51:18.188Z,15.60
2017-08-10T04:53:45.514Z,14.93
2017-08-10T04:56:12.823Z,16.03
2017-08-10T04:58:40.178Z,16.20
2017-08-10T05:01:07.502Z,16.73
2017-08-10T05:03:34.866Z,15.30
2017-08-10T05:06:02.195Z,15.40
2017-08-10T05:08:29.529Z,16.00
2017-08-10T05:10:56.865Z,15.70
2017-08-10T05:13:24.196Z,15.90
2017-08-10T05:15:51.522Z,15.23
2017-08-10T05:18:18.834Z,16.40
2017-08-10T05:20:46.157Z,16.10
2017-08-10T05:23:13.746Z,15.90
2017-08-10T05:25:41.083Z,15.80
2017-08-10T05:28:08.398Z,15.27
2017-08-10T05:30:35.723Z,15.60
2017-08-10T05:33:03.046Z,14.83
2017-08-10T05:35:30.703Z,14.97
2017-08-10T05:37:58.025Z,16.27
2017-08-10T05:40:25.377Z,15.70
2017-08-10T05:42:52.729Z,15.70
2017-08-10T05:45:20.114Z,15.73
2017-08-10T05:47:49.237Z,13.70
2017-08-10T05:50:17.507Z,15.80
2017-08-10T05:52:44.831Z,15.07
2017-08-10T05:55:12.148Z,14.83
2017-08-10T05:57:39.522Z,13.97
2017-08-10T06:00:06.852Z,14.07
2017-08-10T06:02:34.169Z,14.43
2017-08-10T06:05:01.499Z,14.17
2017-08-10T06:07:28.814Z,13.77
2017-08-10T06:09:56.155Z,13.93
2017-08-10T06:12:23.456Z,13.97
2017-08-10T06:14:50.781Z,14.80
2017-08-10T06:17:18.248Z,13.97
2017-08-10T06:19:45.651Z,13.17
2017-08-10T06:22:12.940Z,13.40
2017-08-10T06:24:40.303Z,14.40
2017-08-10T06:27:07.627Z,13.83
2017-08-10T06:29:34.972Z,13.50
2017-08-10T06:32:02.309Z,13.17
2017-08-10T06:34:29.654Z,13.47
2017-08-10T06:36:57.010Z,13.07
2017-08-10T06:39:24.325Z,12.70
2017-08-10T06:41:51.679Z,12.80
2017-08-10T06:44:18.996Z,11.73
2017-08-10T06:46:46.323Z,12.67
2017-08-10T06:49:13.690Z,12.13
2017-08-10T06:51:41.179Z,12.97
2017-08-10T06:54:08.481Z,12.90
2017-08-10T06:56:35.865Z,12.80
2017-08-10T06:59:03.170Z,13.10
2017-08-10T07:01:30.509Z,13.87
2017-08-10T07:03:57.828Z,14.00
2017-08-10T07:06:25.154Z,14.27
2017-08-10T07:08:52.471Z,15.17
2017-08-10T07:11:19.783Z,14.40
2017-08-10T07:13:47.099Z,14.83
2017-08-10T07:16:14.437Z,15.53
2017-08-10T07:18:41.761Z,15.97
2017-08-10T07:21:09.130Z,15.00
2017-08-10T07:23:36.476Z,16.37
2017-08-10T07:26:03.815Z,15.70
2017-08-10T07:28:31.166Z,16.30
2017-08-10T07:30:58.498Z,15.53
2017-08-10T07:33:26.236Z,15.07
2017-08-10T07:35:53.532Z,16.00
2017-08-10T07:38:20.865Z,14.80
2017-08-10T07:40:48.716Z,13.87
2017-08-10T07:43:16.049Z,14.50
2017-08-10T07:45:43.364Z,14.50
2017-08-10T07:48:10.698Z,13.70
2017-08-10T07:50:38.040Z,14.17
2017-08-10T07:53:05.396Z,15.33
2017-08-10T07:55:32.729Z,14.03
2017-08-10T07:58:00.072Z,14.27
2017-08-10T08:00:27.404Z,14.53
2017-08-10T08:02:54.761Z,14.73
2017-08-10T08:05:22.098Z,15.00
2017-08-10T08:07:49.459Z,15.33
2017-08-10T08:10:16.774Z,15.80
2017-08-10T08:12:44.146Z,14.93
2017-08-10T08:15:11.469Z,14.50
2017-08-10T08:17:38.815Z,15.00
2017-08-10T08:20:06.149Z,14.27
2017-08-10T08:22:33.486Z,14.20
2017-08-10T08:25:00.928Z,14.53
2017-08-10T08:27:28.269Z,14.57
2017-08-10T08:29:55.612Z,13.03
2017-08-10T08:32:22.936Z,13.77
2017-08-10T08:34:50.256Z,14.07
2017-08-10T08:37:17.565Z,14.20
2017-08-10T08:39:45.202Z,13.67
2017-08-10T08:42:12.526Z,13.03
2017-08-10T08:44:39.880Z,12.90
2017-08-10T08:47:07.193Z,12.93
2017-08-10T08:49:34.557Z,12.10
2017-08-10T08:52:01.878Z,13.23
2017-08-10T08:54:29.228Z,13.17
2017-08-10T08:56:56.588Z,13.00
2017-08-10T08:59:23.918Z,13.73
2017-08-10T09:01:51.286Z,12.90
2017-08-10T09:04:18.656Z,13.60
2017-08-10T09:06:45.982Z,13.07
2017-08-10T09:09:13.286Z,12.77
2017-08-10T09:11:40.650Z,12.20
2017-08-10T09:14:07.957Z,11.80
2017-08-10T09:16:35.322Z,11.33
2017-08-10T09:19:02.626Z,11.10
2017-08-10T09:21:29.965Z,10.17
2017-08-10T09:23:57.260Z,11.50
2017-08-10T09:26:24.588Z,10.33
2017-08-10T09:28:51.884Z,9.57
2017-08-10T09:31:19.214Z,9.43
2017-08-10T09:33:46.536Z,9.60
2017-08-10T09:36:13.838Z,9.43
2017-08-10T09:38:41.168Z,9.50
2017-08-10T09:41:08.484Z,9.37
2017-08-10T09:43:35.801Z,9.50
2017-08-10T09:46:03.160Z,9.50
2017-08-10T09:48:30.479Z,9.60
2017-08-10T09:50:57.779Z,8.83
2017-08-10T09:53:25.138Z,9.20
2017-08-10T09:55:52.549Z,9.40
2017-08-10T09:58:19.867Z,8.63
2017-08-10T10:00:47.334Z,8.50
2017-08-10T10:03:14.648Z,9.80
2017-08-10T10:05:41.966Z,10.33
2017-08-10T10:08:09.501Z,10.67
2017-08-10T10:10:36.813Z,10.63
2017-08-10T10:13:04.162Z,9.97
2017-08-10T10:15:31.491Z,9.40
2017-08-10T10:17:59.162Z,8.50
2017-08-10T10:20:27.407Z,9.60
2017-08-10T10:22:54.708Z,8.30
2017-08-10T10:25:22.013Z,8.90
2017-08-10T10:27:49.342Z,8.23
2017-08-10T10:30:16.684Z,8.83
2017-08-10T10:32:44.043Z,7.70
2017-08-10T10:35:11.669Z,6.87
2017-08-10T10:37:38.996Z,6.70
2017-08-10T10:40:06.314Z,5.97
2017-08-10T10:42:33.678Z,6.63
2017-08-10T10:45:01.136Z,6.90
2017-08-10T10:47:28.479Z,8.20
2017-08-10T10:49:55.801Z,7.90
2017-08-10T10:52:23.343Z,6.63
2017-08-10T10:54:50.646Z,7.57
2017-08-10T10:57:17.936Z,7.77
2017-08-10T10:59:45.284Z,7.30
2017-08-10T11:02:12.690Z,7.70
2017-08-10T11:04:40.076Z,7.80
2017-08-10T11:07:07.462Z,7.50
2017-08-10T11:09:34.879Z,6.73
2017-08-10T11:12:02.231Z,6.80
2017-08-10T11:14:29.592Z,5.97
2017-08-10T11:16:56.944Z,6.30
2017-08-10T11:19:24.294Z,5.67
2017-08-10T11:21:51.630Z,6.30
2017-08-10T11:24:18.958Z,5.67
2017-08-10T11:26:46.248Z,5.57
2017-08-10T11:29:13.649Z,5.53
2017-08-10T11:31:41.011Z,5.30
2017-08-10T11:34:08.339Z,5.57
2017-08-10T11:36:35.692Z,5.23
2017-08-10T11:39:03.032Z,5.23
2017-08-10T11:41:30.595Z,5.60
2017-08-10T11:43:57.962Z,5.00
2017-08-10T11:46:25.309Z,5.63
2017-08-10T11:48:52.657Z,4.90
2017-08-10T11:51:20.037Z,5.33
2017-08-10T11:53:47.340Z,5.50
2017-08-10T11:56:14.688Z,5.30
2017-08-10T11:58:42.103Z,4.90
2017-08-10T12:01:09.481Z,5.10
2017-08-10T12:03:36.850Z,5.20
2017-08-10T12:06:04.180Z,4.83
2017-08-10T12:08:31.499Z,4.67
2017-08-10T12:10:58.869Z,4.23
2017-08-10T12:13:26.152Z,4.20
2017-08-10T12:15:53.841Z,3.80
2017-08-10T12:18:21.200Z,4.13
2017-08-10T12:20:48.584Z,4.50
2017-08-10T12:23:15.908Z,4.10
2017-08-10T12:25:43.210Z,5.63
2017-08-10T12:28:10.541Z,3.80
2017-08-10T12:30:37.883Z,3.57
2017-08-10T12:33:05.263Z,3.57
2017-08-10T12:35:32.741Z,3.50
2017-08-10T12:38:00.404Z,3.77
2017-08-10T12:40:27.720Z,4.67
2017-08-10T12:42:55.858Z,3.93
2017-08-10T12:45:23.198Z,4.20
2017-08-10T12:47:50.567Z,4.70
2017-08-10T12:50:18.085Z,5.27
2017-08-10T12:52:45.396Z,4.20
2017-08-10T12:55:12.772Z,4.17
2017-08-10T12:57:40.062Z,4.03
2017-08-10T13:00:07.389Z,4.40
2017-08-10T13:02:34.782Z,3.90
2017-08-10T13:05:02.113Z,4.57
2017-08-10T13:07:29.415Z,3.90
2017-08-10T13:09:56.726Z,4.10
2017-08-10T13:12:24.034Z,5.70
2017-08-10T13:14:51.417Z,4.53
2017-08-10T13:17:18.825Z,4.50
2017-08-10T13:19:46.188Z,4.20
2017-08-10T13:22:13.517Z,3.30
2017-08-10T13:24:40.892Z,3.73
2017-08-10T13:27:08.250Z,3.50
2017-08-10T13:29:35.636Z,3.47
2017-08-10T13:32:03.066Z,3.60
2017-08-10T13:34:30.385Z,4.10
2017-08-10T13:39:34.403Z,4.50
2017-08-10T13:42:01.808Z,4.20
2017-08-10T13:44:29.134Z,4.03
2017-08-10T13:46:56.456Z,3.47
2017-08-10T13:49:23.753Z,3.92
2017-08-10T13:51:51.130Z,4.07
2017-08-10T13:54:18.463Z,4.07
2017-08-10T13:56:45.789Z,3.92
2017-08-10T13:59:13.198Z,4.20
2017-08-10T14:01:40.569Z,4.30
2017-08-10T14:04:07.913Z,4.70
2017-08-10T14:06:35.216Z,4.30
2017-08-10T14:09:02.514Z,4.20
2017-08-10T14:11:29.881Z,4.30
2017-08-10T14:13:57.178Z,4.20
2017-08-10T14:16:24.520Z,4.60
2017-08-10T14:18:51.822Z,3.90
2017-08-10T14:21:19.147Z,4.20
2017-08-10T14:23:46.570Z,3.83
2017-08-10T14:26:13.966Z,3.80
2017-08-10T14:28:41.304Z,3.90
2017-08-10T14:31:08.738Z,3.87
2017-08-10T14:33:36.992Z,4.17
2017-08-10T14:36:04.322Z,4.50
2017-08-10T14:38:31.793Z,4.60
2017-08-10T14:40:59.642Z,4.30
2017-08-10T14:43:27.326Z,4.80
2017-08-10T14:45:54.728Z,4.17
2017-08-10T14:48:22.089Z,4.30
2017-08-10T14:50:49.452Z,4.20
2017-08-10T14:53:16.782Z,4.40
2017-08-10T14:55:44.444Z,3.60
2017-08-10T14:58:11.816Z,3.87
2017-08-10T15:00:39.187Z,3.50
2017-08-10T15:03:06.607Z,3.60
2017-08-10T15:05:34.078Z,4.20
2017-08-10T15:08:01.412Z,3.73
2017-08-10T15:10:28.796Z,3.57
2017-08-10T15:12:56.666Z,3.75
2017-08-10T15:15:23.992Z,3.70
2017-08-10T15:17:51.427Z,3.80
2017-08-10T15:20:18.771Z,4.00
2017-08-10T15:22:46.101Z,4.23
2017-08-10T15:25:13.435Z,4.40
2017-08-10T15:27:40.814Z,4.50
2017-08-10T15:30:08.125Z,4.10
2017-08-10T15:32:35.421Z,4.60
2017-08-10T15:35:02.791Z,4.80
2017-08-10T15:37:30.435Z,4.70
2017-08-10T15:39:57.754Z,4.87
2017-08-10T15:42:25.093Z,5.23
2017-08-10T15:44:52.414Z,4.83
2017-08-10T15:47:19.747Z,5.30
2017-08-10T15:49:47.316Z,5.27
2017-08-10T15:52:14.743Z,5.10
2017-08-10T15:54:42.248Z,5.50
2017-08-10T15:57:09.563Z,5.17
2017-08-10T15:59:36.882Z,4.63
2017-08-10T16:02:04.214Z,4.70
2017-08-10T16:04:32.313Z,4.77
2017-08-10T16:06:59.981Z,4.70
2017-08-10T16:09:27.387Z,4.43
2017-08-10T16:11:54.706Z,4.70
2017-08-10T16:14:22.001Z,4.80
2017-08-10T16:16:49.353Z,4.70
2017-08-10T16:19:16.735Z,4.90
2017-08-10T16:21:44.378Z,4.97
2017-08-10T16:24:11.672Z,5.30
2017-08-10T16:26:39.063Z,6.57
2017-08-10T16:29:06.385Z,6.60
2017-08-10T16:31:33.800Z,6.50
2017-08-10T16:34:02.002Z,5.77
2017-08-10T16:36:29.391Z,5.70
2017-08-10T16:38:56.905Z,5.23
2017-08-10T16:41:24.401Z,6.00
2017-08-10T16:43:51.719Z,6.00
2017-08-10T16:46:19.491Z,5.80
2017-08-10T16:48:46.846Z,5.80
2017-08-10T16:51:14.182Z,6.47
2017-08-10T16:53:41.606Z,6.30
2017-08-10T16:56:08.962Z,6.30
2017-08-10T16:58:36.485Z,6.03
2017-08-10T17:01:03.940Z,6.50
2017-08-10T17:03:31.299Z,6.53
2017-08-10T17:05:58.588Z,5.77
2017-08-10T17:08:25.949Z,6.17
2017-08-10T17:10:53.300Z,6.20
2017-08-10T17:13:20.641Z,6.17
2017-08-10T17:15:48.742Z,7.00
2017-08-10T17:18:16.056Z,5.90
2017-08-10T17:20:43.441Z,6.00
2017-08-10T17:23:10.802Z,6.07
2017-08-10T17:25:38.188Z,5.80
2017-08-10T17:28:05.504Z,5.80
2017-08-10T17:30:32.843Z,6.80
2017-08-10T17:33:00.163Z,6.33
2017-08-10T17:35:27.489Z,5.90
2017-08-10T17:37:54.822Z,6.10
2017-08-10T17:40:22.144Z,5.77
2017-08-10T17:42:49.660Z,6.37
2017-08-10T17:45:17.049Z,6.40
2017-08-10T17:47:44.336Z,6.47
2017-08-10T17:50:11.641Z,5.90
2017-08-10T17:52:38.953Z,5.70
2017-08-10T17:55:06.325Z,6.07
2017-08-10T17:57:33.682Z,6.00
2017-08-10T18:00:01.011Z,5.97
2017-08-10T18:02:28.327Z,5.90
2017-08-10T18:04:55.654Z,6.27
2017-08-10T18:07:22.952Z,5.90
2017-08-10T18:09:50.324Z,6.20
2017-08-10T18:12:17.662Z,6.43
2017-08-10T18:14:45.108Z,7.30
2017-08-10T18:17:12.477Z,6.30
2017-08-10T18:19:39.940Z,6.13
2017-08-10T18:22:07.386Z,6.30
2017-08-10T18:24:34.701Z,6.50
2017-08-10T18:27:02.057Z,5.80
2017-08-10T18:29:29.344Z,6.33
2017-08-10T18:31:56.950Z,6.40
2017-08-10T18:34:24.278Z,6.27
2017-08-10T18:36:51.577Z,6.20
2017-08-10T18:39:18.924Z,5.90
2017-08-10T18:41:46.240Z,6.50
2017-08-10T18:44:13.533Z,5.97
2017-08-10T18:46:40.898Z,6.13
2017-08-10T18:49:08.203Z,6.43
2017-08-10T18:51:35.564Z,5.70
2017-08-10T18:54:02.874Z,5.53
2017-08-10T18:56:30.188Z,5.60
2017-08-10T18:58:57.521Z,5.67
2017-08-10T19:01:24.833Z,6.23
2017-08-10T19:03:52.173Z,5.60
2017-08-10T19:06:19.487Z,5.70
2017-08-10T19:08:46.790Z,5.97
2017-08-10T19:11:14.089Z,5.50
2017-08-10T19:13:41.426Z,6.10
2017-08-10T19:16:08.742Z,6.17
2017-08-10T19:18:36.089Z,6.00
2017-08-10T19:21:03.394Z,5.93
2017-08-10T19:23:30.733Z,5.97
2017-08-10T19:25:58.016Z,5.70
2017-08-10T19:28:25.356Z,5.80
2017-08-10T19:30:52.674Z,5.93
2017-08-10T19:33:20.019Z,5.20
2017-08-10T19:35:47.359Z,6.00
2017-08-10T19:38:14.667Z,5.80
2017-08-10T19:40:42.005Z,5.60
2017-08-10T19:43:09.362Z,5.73
2017-08-10T19:45:36.675Z,5.30
2017-08-10T19:48:03.967Z,5.80
2017-08-10T19:50:31.522Z,5.80
2017-08-10T19:52:58.856Z,5.40
2017-08-10T19:55:26.227Z,5.20
2017-08-10T19:57:53.574Z,5.53
2017-08-10T20:00:20.917Z,5.23
2017-08-10T20:02:48.232Z,5.10
2017-08-10T20:05:15.559Z,4.93
2017-08-10T20:07:42.913Z,5.37
2017-08-10T20:10:10.292Z,4.50
2017-08-10T20:12:37.635Z,5.10
2017-08-10T20:15:05.020Z,4.53
2017-08-10T20:17:32.334Z,5.30
2017-08-10T20:19:59.632Z,4.80
2017-08-10T20:22:26.978Z,4.60
2017-08-10T20:24:54.290Z,4.33
2017-08-10T20:27:21.754Z,4.50
2017-08-10T20:29:49.081Z,4.07
2017-08-10T20:32:16.762Z,4.50
2017-08-10T20:34:44.102Z,5.07
2017-08-10T20:37:11.426Z,4.53
2017-08-10T20:39:38.790Z,4.73
2017-08-10T20:42:06.097Z,4.23
2017-08-10T20:44:33.409Z,4.33
2017-08-10T20:47:00.722Z,4.53
2017-08-10T20:49:28.086Z,5.50
2017-08-10T20:51:55.405Z,4.47
2017-08-10T20:54:22.724Z,3.80
2017-08-10T20:56:50.132Z,4.10
2017-08-10T20:59:17.497Z,4.20
2017-08-10T21:01:44.844Z,4.20
2017-08-10T21:04:12.257Z,4.50
2017-08-10T21:06:39.591Z,4.23
2017-08-10T21:09:06.935Z,4.80
2017-08-10T21:11:34.248Z,4.17
2017-08-10T21:14:01.685Z,4.40
2017-08-10T21:16:29.033Z,4.40
2017-08-10T21:18:56.424Z,3.90
2017-08-10T21:21:23.750Z,4.60
2017-08-10T21:23:51.087Z,4.40
2017-08-10T21:26:18.488Z,4.17
2017-08-10T21:28:45.780Z,4.30
2017-08-10T21:31:13.102Z,5.30
2017-08-10T21:33:40.419Z,9.93
2017-08-10T21:36:07.718Z,5.10
2017-08-10T21:38:35.037Z,4.73
2017-08-10T21:41:02.365Z,5.10
2017-08-10T21:43:29.680Z,4.30
2017-08-10T21:45:56.964Z,4.40
2017-08-10T21:48:24.307Z,4.27
2017-08-10T21:50:51.625Z,4.30
2017-08-10T21:53:18.942Z,4.70
2017-08-10T21:55:46.250Z,6.00
2017-08-10T21:58:13.561Z,5.67
2017-08-10T22:00:40.883Z,5.60
2017-08-10T22:03:08.201Z,5.80
2017-08-10T22:05:35.510Z,7.40
2017-08-10T22:08:02.850Z,7.90
2017-08-10T22:10:30.164Z,7.07
2017-08-10T22:12:57.529Z,6.60
2017-08-10T22:15:24.824Z,6.30
2017-08-10T22:17:52.178Z,6.17
2017-08-10T22:20:19.489Z,6.47
2017-08-10T22:22:46.802Z,6.10
2017-08-10T22:25:14.111Z,5.87
2017-08-10T22:27:41.453Z,6.23
2017-08-10T22:30:08.796Z,6.07
2017-08-10T22:32:36.127Z,5.20
2017-08-10T22:35:03.429Z,6.00
2017-08-10T22:37:30.730Z,5.30
2017-08-10T22:39:58.252Z,5.30
2017-08-10T22:42:25.554Z,5.10
2017-08-10T22:44:53.068Z,5.07
2017-08-10T22:47:20.374Z,5.20
2017-08-10T22:49:47.684Z,5.37
2017-08-10T22:52:14.981Z,5.90
2017-08-10T22:54:42.315Z,5.80
2017-08-10T22:57:09.628Z,5.90
2017-08-10T22:59:36.946Z,6.37
2017-08-10T23:02:04.256Z,6.40
2017-08-10T23:04:31.778Z,6.43
2017-08-10T23:06:59.111Z,6.70
2017-08-10T23:09:26.448Z,5.70
2017-08-10T23:11:53.744Z,6.10
2017-08-10T23:14:21.048Z,5.87
2017-08-10T23:16:48.370Z,6.20
2017-08-10T23:19:15.680Z,6.00
2017-08-10T23:21:43.001Z,6.90
2017-08-10T23:24:10.276Z,6.60
2017-08-10T23:26:37.584Z,6.73
2017-08-10T23:29:04.884Z,6.30
2017-08-10T23:31:32.230Z,7.23
2017-08-10T23:33:59.533Z,6.97
2017-08-10T23:36:27.213Z,7.10
2017-08-10T23:38:54.541Z,7.20
2017-08-10T23:41:21.865Z,7.70
2017-08-10T23:43:49.174Z,8.00
2017-08-10T23:46:16.482Z,7.20
2017-08-10T23:48:43.905Z,8.00
2017-08-10T23:51:11.222Z,8.30
2017-08-10T23:53:38.548Z,8.63
2017-08-10T23:56:05.882Z,9.40
2017-08-10T23:58:33.172Z,9.13
